createdAt,value
2022-07-29T00:00:14.372Z,14
2022-07-29T00:01:14.373Z,15
2022-07-29T00:02:14.374Z,15
2022-07-29T00:03:14.374Z,13
2022-07-29T00:04:14.375Z,14
2022-07-29T00:05:14.375Z,17
2022-07-29T00:06:14.375Z,13
2022-07-29T00:07:14.441Z,15
2022-07-29T00:08:14.354Z,11
2022-07-29T00:09:14.354Z,12
2022-07-29T00:10:14.377Z,12
2022-07-29T00:11:14.355Z,11
2022-07-29T00:12:14.356Z,11
2022-07-29T00:13:14.388Z,13
2022-07-29T00:14:14.379Z,13
2022-07-29T00:15:14.379Z,13
2022-07-29T00:16:14.396Z,13
2022-07-29T00:17:14.380Z,12
2022-07-29T00:18:14.381Z,12
2022-07-29T00:19:14.381Z,11
2022-07-29T00:20:14.382Z,10
2022-07-29T00:21:14.382Z,12
2022-07-29T00:22:14.383Z,11
2022-07-29T00:23:14.361Z,11
2022-07-29T00:24:14.361Z,11
2022-07-29T00:25:14.361Z,12
2022-07-29T00:26:14.362Z,12
2022-07-29T00:27:14.362Z,13
2022-07-29T00:28:14.363Z,12
2022-07-29T00:29:14.386Z,12
2022-07-29T00:30:14.386Z,14
2022-07-29T00:31:14.451Z,13
2022-07-29T00:32:14.387Z,12
2022-07-29T00:33:14.387Z,11
2022-07-29T00:34:14.388Z,11
2022-07-29T00:35:14.389Z,8
2022-07-29T00:36:14.389Z,8
2022-07-29T00:37:14.389Z,9
2022-07-29T00:38:14.367Z,8
2022-07-29T00:39:14.368Z,9
2022-07-29T00:40:14.368Z,10
2022-07-29T00:41:14.369Z,7
2022-07-29T00:42:14.369Z,10
2022-07-29T00:43:14.370Z,9
2022-07-29T00:44:14.392Z,9
2022-07-29T00:45:14.393Z,9
2022-07-29T00:46:14.393Z,10
2022-07-29T00:47:14.394Z,13
2022-07-29T00:48:14.394Z,11
2022-07-29T00:49:14.395Z,14
2022-07-29T00:50:14.395Z,12
2022-07-29T00:51:14.396Z,13
2022-07-29T00:52:14.396Z,13
2022-07-29T00:53:14.374Z,12
2022-07-29T00:54:14.374Z,13
2022-07-29T00:55:14.375Z,13
2022-07-29T00:56:14.375Z,13
2022-07-29T00:57:14.376Z,14
2022-07-29T00:58:14.376Z,13
2022-07-29T00:59:14.399Z,14
2022-07-29T01:00:14.400Z,14
2022-07-29T01:01:14.400Z,15
2022-07-29T01:02:14.400Z,17
2022-07-29T01:03:14.401Z,17
2022-07-29T01:04:14.401Z,17
2022-07-29T01:05:14.402Z,17
2022-07-29T01:06:14.402Z,14
2022-07-29T01:07:14.403Z,17
2022-07-29T01:08:14.468Z,15
2022-07-29T01:09:14.381Z,17
2022-07-29T01:10:14.382Z,12
2022-07-29T01:11:14.404Z,13
2022-07-29T01:12:14.382Z,13
2022-07-29T01:13:14.383Z,12
2022-07-29T01:14:14.416Z,12
2022-07-29T01:15:14.406Z,11
2022-07-29T01:16:14.407Z,13
2022-07-29T01:17:14.423Z,16
2022-07-29T01:18:14.408Z,11
2022-07-29T01:19:14.408Z,13
2022-07-29T01:20:14.408Z,12
2022-07-29T01:21:14.409Z,11
2022-07-29T01:22:14.410Z,15
2022-07-29T01:23:14.410Z,12
2022-07-29T01:24:14.388Z,15
2022-07-29T01:25:14.388Z,13
2022-07-29T01:26:14.389Z,14
2022-07-29T01:27:14.389Z,13
2022-07-29T01:28:14.390Z,13
2022-07-29T01:29:14.413Z,22
2022-07-29T01:30:14.413Z,21
2022-07-29T01:31:14.413Z,19
2022-07-29T01:32:14.438Z,15
2022-07-29T01:33:14.414Z,12
2022-07-29T01:34:14.415Z,14
2022-07-29T01:35:14.415Z,10
2022-07-29T01:36:14.416Z,10
2022-07-29T01:37:14.416Z,10
2022-07-29T01:38:14.417Z,11
2022-07-29T01:39:14.395Z,11
2022-07-29T01:40:14.395Z,10
2022-07-29T01:41:14.395Z,10
2022-07-29T01:42:14.396Z,9
2022-07-29T01:43:14.396Z,10
2022-07-29T01:44:14.397Z,11
2022-07-29T01:45:14.419Z,10
2022-07-29T01:46:14.420Z,10
2022-07-29T01:47:14.421Z,11
2022-07-29T01:48:14.421Z,10
2022-07-29T01:49:14.421Z,12
2022-07-29T01:50:14.422Z,11
2022-07-29T01:51:14.422Z,10
2022-07-29T01:52:14.423Z,11
2022-07-29T01:53:14.423Z,10
2022-07-29T01:54:14.401Z,10
2022-07-29T01:55:14.402Z,13
2022-07-29T01:56:14.402Z,10
2022-07-29T01:57:14.403Z,10
2022-07-29T01:58:14.403Z,10
2022-07-29T01:59:14.403Z,10
2022-07-29T02:00:14.426Z,12
2022-07-29T02:01:14.427Z,12
2022-07-29T02:02:14.427Z,13
2022-07-29T02:03:14.428Z,12
2022-07-29T02:04:14.428Z,16
2022-07-29T02:05:14.429Z,11
2022-07-29T02:06:14.429Z,13
2022-07-29T02:07:14.429Z,12
2022-07-29T02:08:14.430Z,11
2022-07-29T02:09:14.455Z,13
2022-07-29T02:10:14.408Z,12
2022-07-29T02:11:14.409Z,12
2022-07-29T02:12:14.409Z,15
2022-07-29T02:13:14.410Z,13
2022-07-29T02:14:14.410Z,13
2022-07-29T02:15:14.433Z,14
2022-07-29T02:16:14.433Z,14
2022-07-29T02:17:14.434Z,13
2022-07-29T02:18:14.443Z,15
2022-07-29T02:19:14.435Z,15
2022-07-29T02:20:14.435Z,17
2022-07-29T02:21:14.436Z,16
2022-07-29T02:22:14.436Z,15
2022-07-29T02:23:14.437Z,14
2022-07-29T02:24:14.437Z,14
2022-07-29T02:25:14.415Z,15
2022-07-29T02:26:14.415Z,14
2022-07-29T02:27:14.416Z,14
2022-07-29T02:28:14.416Z,17
2022-07-29T02:29:14.417Z,17
2022-07-29T02:30:14.440Z,17
2022-07-29T02:31:14.440Z,19
2022-07-29T02:32:14.440Z,18
2022-07-29T02:33:14.441Z,18
2022-07-29T02:34:14.441Z,17
2022-07-29T02:35:14.442Z,15
2022-07-29T02:36:14.451Z,17
2022-07-29T02:37:14.443Z,16
2022-07-29T02:38:14.443Z,14
2022-07-29T02:39:14.444Z,15
2022-07-29T02:40:14.422Z,14
2022-07-29T02:41:14.422Z,14
2022-07-29T02:42:14.422Z,16
2022-07-29T02:43:14.423Z,15
2022-07-29T02:44:14.423Z,14
2022-07-29T02:45:14.424Z,15
2022-07-29T02:46:14.446Z,16
2022-07-29T02:47:14.447Z,15
2022-07-29T02:48:14.447Z,13
2022-07-29T02:49:14.448Z,14
2022-07-29T02:50:14.448Z,13
2022-07-29T02:51:14.449Z,15
2022-07-29T02:52:14.449Z,13
2022-07-29T02:53:14.450Z,13
2022-07-29T02:54:14.450Z,13
2022-07-29T02:55:14.428Z,14
2022-07-29T02:56:14.429Z,15
2022-07-29T02:57:14.429Z,14
2022-07-29T02:58:14.429Z,16
2022-07-29T02:59:14.430Z,15
2022-07-29T03:00:14.430Z,15
2022-07-29T03:01:14.453Z,15
2022-07-29T03:02:14.453Z,10
2022-07-29T03:03:14.454Z,10
2022-07-29T03:04:14.454Z,10
2022-07-29T03:05:14.455Z,11
2022-07-29T03:06:14.455Z,11
2022-07-29T03:07:14.456Z,11
2022-07-29T03:08:14.456Z,11
2022-07-29T03:09:14.457Z,11
2022-07-29T03:10:14.435Z,10
2022-07-29T03:11:14.435Z,11
2022-07-29T03:12:14.436Z,10
2022-07-29T03:13:14.436Z,10
2022-07-29T03:14:14.437Z,10
2022-07-29T03:15:14.437Z,12
2022-07-29T03:16:14.460Z,13
2022-07-29T03:17:14.460Z,13
2022-07-29T03:18:14.461Z,11
2022-07-29T03:19:14.461Z,11
2022-07-29T03:20:14.462Z,11
2022-07-29T03:21:14.462Z,12
2022-07-29T03:22:14.527Z,10
2022-07-29T03:23:14.463Z,9
2022-07-29T03:24:14.463Z,12
2022-07-29T03:25:14.464Z,11
2022-07-29T03:27:14.442Z,13
2022-07-29T03:28:14.443Z,12
2022-07-29T03:29:14.443Z,13
2022-07-29T03:30:14.444Z,13
2022-07-29T03:31:14.466Z,16
2022-07-29T03:32:14.467Z,17
2022-07-29T03:33:14.467Z,17
2022-07-29T03:34:14.468Z,15
2022-07-29T03:35:14.468Z,14
2022-07-29T03:36:14.469Z,15
2022-07-29T03:37:14.494Z,17
2022-07-29T03:38:14.470Z,17
2022-07-29T03:39:14.470Z,18
2022-07-29T03:40:14.471Z,15
2022-07-29T03:41:14.448Z,16
2022-07-29T03:42:14.449Z,18
2022-07-29T03:43:14.449Z,14
2022-07-29T03:44:14.450Z,17
2022-07-29T03:45:14.450Z,16
2022-07-29T03:46:14.451Z,16
2022-07-29T03:47:14.473Z,18
2022-07-29T03:48:14.474Z,17
2022-07-29T03:49:14.474Z,19
2022-07-29T03:50:14.475Z,20
2022-07-29T03:51:14.475Z,19
2022-07-29T03:52:14.475Z,18
2022-07-29T03:53:14.476Z,17
2022-07-29T03:54:14.477Z,17
2022-07-29T03:55:14.477Z,19
2022-07-29T03:56:14.455Z,17
2022-07-29T03:57:14.455Z,15
2022-07-29T03:58:14.456Z,15
2022-07-29T03:59:14.456Z,18
2022-07-29T04:00:14.456Z,16
2022-07-29T04:01:14.457Z,17
2022-07-29T04:02:14.480Z,18
2022-07-29T04:03:14.480Z,20
2022-07-29T04:04:14.480Z,17
2022-07-29T04:05:14.481Z,17
2022-07-29T04:06:14.481Z,20
2022-07-29T04:07:14.482Z,22
2022-07-29T04:08:14.482Z,25
2022-07-29T04:09:14.483Z,20
2022-07-29T04:10:14.483Z,24
2022-07-29T04:11:14.461Z,18
2022-07-29T04:12:14.461Z,18
2022-07-29T04:13:14.462Z,20
2022-07-29T04:14:14.462Z,16
2022-07-29T04:15:14.463Z,20
2022-07-29T04:16:14.463Z,23
2022-07-29T04:17:14.486Z,19
2022-07-29T04:18:14.486Z,21
2022-07-29T04:19:14.487Z,21
2022-07-29T04:20:14.487Z,20
2022-07-29T04:21:14.488Z,19
2022-07-29T04:22:14.488Z,21
2022-07-29T04:23:14.553Z,18
2022-07-29T04:24:14.489Z,23
2022-07-29T04:25:14.489Z,18
2022-07-29T04:26:14.490Z,17
2022-07-29T04:27:14.468Z,19
2022-07-29T04:28:14.468Z,18
2022-07-29T04:29:14.469Z,22
2022-07-29T04:30:14.469Z,20
2022-07-29T04:31:14.469Z,16
2022-07-29T04:32:14.492Z,20
2022-07-29T04:33:14.493Z,19
2022-07-29T04:34:14.493Z,18
2022-07-29T04:35:14.558Z,17
2022-07-29T04:36:14.494Z,17
2022-07-29T04:37:14.494Z,18
2022-07-29T04:38:14.495Z,17
2022-07-29T04:39:14.495Z,17
2022-07-29T04:40:14.496Z,16
2022-07-29T04:41:14.496Z,16
2022-07-29T04:42:14.474Z,18
2022-07-29T04:43:14.474Z,18
2022-07-29T04:44:14.475Z,23
2022-07-29T04:45:14.475Z,22
2022-07-29T04:46:14.476Z,17
2022-07-29T04:47:14.476Z,18
2022-07-29T04:48:14.499Z,15
2022-07-29T04:49:14.499Z,20
2022-07-29T04:50:14.500Z,17
2022-07-29T04:51:14.500Z,23
2022-07-29T04:52:14.501Z,21
2022-07-29T04:53:14.501Z,22
2022-07-29T04:54:14.502Z,16
2022-07-29T04:55:14.502Z,14
2022-07-29T04:56:14.502Z,13
2022-07-29T04:57:14.480Z,14
2022-07-29T04:58:14.481Z,14
2022-07-29T04:59:14.481Z,12
2022-07-29T05:00:14.482Z,18
2022-07-29T05:01:14.482Z,15
2022-07-29T05:02:14.483Z,16
2022-07-29T05:03:14.505Z,16
2022-07-29T05:04:14.506Z,17
2022-07-29T05:05:14.506Z,17
2022-07-29T05:06:14.507Z,15
2022-07-29T05:07:14.507Z,17
2022-07-29T05:08:14.508Z,16
2022-07-29T05:09:14.508Z,18
2022-07-29T05:10:14.508Z,17
2022-07-29T05:11:14.509Z,14
2022-07-29T05:12:14.574Z,17
2022-07-29T05:13:14.487Z,20
2022-07-29T05:14:14.488Z,20
2022-07-29T05:15:14.510Z,18
2022-07-29T05:16:14.488Z,20
2022-07-29T05:17:14.489Z,20
2022-07-29T05:18:14.521Z,22
2022-07-29T05:19:14.512Z,20
2022-07-29T05:20:14.513Z,23
2022-07-29T05:21:14.529Z,22
2022-07-29T05:22:14.513Z,24
2022-07-29T05:23:14.514Z,21
2022-07-29T05:24:14.515Z,23
2022-07-29T05:25:14.515Z,22
2022-07-29T05:26:14.515Z,16
2022-07-29T05:27:14.516Z,17
2022-07-29T05:28:14.494Z,18
2022-07-29T05:29:14.494Z,22
2022-07-29T05:30:14.495Z,31
2022-07-29T05:31:14.495Z,24
2022-07-29T05:32:14.495Z,28
2022-07-29T05:33:14.518Z,25
2022-07-29T05:35:14.519Z,24
2022-07-29T05:36:14.544Z,27
2022-07-29T05:37:14.520Z,31
2022-07-29T05:38:14.520Z,24
2022-07-29T05:39:14.545Z,24
2022-07-29T05:40:14.522Z,28
2022-07-29T05:41:14.522Z,25
2022-07-29T05:42:14.523Z,22
2022-07-29T05:43:14.500Z,24
2022-07-29T05:44:14.501Z,30
2022-07-29T05:45:14.501Z,29
2022-07-29T05:46:14.501Z,25
2022-07-29T05:47:14.502Z,28
2022-07-29T05:48:14.502Z,27
2022-07-29T05:49:14.525Z,29
2022-07-29T05:50:14.525Z,32
2022-07-29T05:51:14.526Z,28
2022-07-29T05:52:14.526Z,29
2022-07-29T05:53:14.527Z,38
2022-07-29T05:54:14.527Z,33
2022-07-29T05:55:14.528Z,35
2022-07-29T05:56:14.528Z,32
2022-07-29T05:57:14.529Z,33
2022-07-29T05:58:14.507Z,28
2022-07-29T05:59:14.507Z,24
2022-07-29T06:00:14.508Z,22
2022-07-29T06:01:14.508Z,29
2022-07-29T06:02:14.508Z,30
2022-07-29T06:03:14.509Z,30
2022-07-29T06:04:14.532Z,31
2022-07-29T06:05:14.532Z,35
2022-07-29T06:06:14.533Z,26
2022-07-29T06:07:14.533Z,23
2022-07-29T06:08:14.533Z,22
2022-07-29T06:09:14.534Z,25
2022-07-29T06:10:14.534Z,24
2022-07-29T06:11:14.535Z,24
2022-07-29T06:12:14.536Z,25
2022-07-29T06:13:14.513Z,23
2022-07-29T06:14:14.514Z,27
2022-07-29T06:15:14.514Z,26
2022-07-29T06:16:14.515Z,28
2022-07-29T06:17:14.515Z,22
2022-07-29T06:18:14.515Z,25
2022-07-29T06:19:14.538Z,22
2022-07-29T06:20:14.539Z,30
2022-07-29T06:21:14.539Z,23
2022-07-29T06:22:14.540Z,23
2022-07-29T06:23:14.540Z,23
2022-07-29T06:24:14.541Z,21
2022-07-29T06:25:14.606Z,29
2022-07-29T06:26:14.542Z,34
2022-07-29T06:27:14.542Z,33
2022-07-29T06:28:14.543Z,38
2022-07-29T06:29:14.621Z,36
2022-07-29T06:30:14.521Z,28
2022-07-29T06:31:14.521Z,27
2022-07-29T06:32:14.522Z,29
2022-07-29T06:33:14.522Z,35
2022-07-29T06:34:14.545Z,32
2022-07-29T06:35:14.546Z,35
2022-07-29T06:36:14.546Z,40
2022-07-29T06:37:14.547Z,34
2022-07-29T06:38:14.547Z,33
2022-07-29T06:39:14.548Z,37
2022-07-29T06:40:14.565Z,32
2022-07-29T06:41:14.548Z,24
2022-07-29T06:42:14.549Z,32
2022-07-29T06:43:14.550Z,32
2022-07-29T06:44:14.527Z,29
2022-07-29T06:45:14.528Z,31
2022-07-29T06:46:14.528Z,32
2022-07-29T06:47:14.529Z,35
2022-07-29T06:48:14.529Z,35
2022-07-29T06:49:14.530Z,35
2022-07-29T06:50:14.552Z,34
2022-07-29T06:51:14.553Z,39
2022-07-29T06:52:14.553Z,44
2022-07-29T06:53:14.554Z,42
2022-07-29T06:54:14.554Z,43
2022-07-29T06:55:14.555Z,42
2022-07-29T06:56:14.555Z,46
2022-07-29T06:57:14.556Z,42
2022-07-29T06:58:14.557Z,48
2022-07-29T06:59:14.534Z,50
2022-07-29T07:00:14.535Z,41
2022-07-29T07:01:14.535Z,39
2022-07-29T07:02:14.536Z,38
2022-07-29T07:03:14.536Z,45
2022-07-29T07:04:14.537Z,40
2022-07-29T07:05:14.560Z,43
2022-07-29T07:06:14.560Z,36
2022-07-29T07:07:14.560Z,36
2022-07-29T07:08:14.561Z,35
2022-07-29T07:09:14.561Z,34
2022-07-29T07:10:14.562Z,33
2022-07-29T07:11:14.563Z,37
2022-07-29T07:12:14.563Z,34
2022-07-29T07:13:14.563Z,33
2022-07-29T07:14:14.541Z,36
2022-07-29T07:15:14.542Z,32
2022-07-29T07:16:14.542Z,29
2022-07-29T07:17:14.543Z,36
2022-07-29T07:18:14.543Z,38
2022-07-29T07:19:14.544Z,45
2022-07-29T07:20:14.566Z,42
2022-07-29T07:21:14.567Z,41
2022-07-29T07:22:14.567Z,38
2022-07-29T07:23:14.568Z,33
2022-07-29T07:24:14.569Z,39
2022-07-29T07:25:14.569Z,44
2022-07-29T07:26:14.634Z,46
2022-07-29T07:27:14.570Z,41
2022-07-29T07:28:14.571Z,37
2022-07-29T07:29:20.617Z,37
2022-07-29T07:30:14.549Z,42
2022-07-29T07:31:14.550Z,48
2022-07-29T07:32:14.550Z,55
2022-07-29T07:33:14.551Z,48
2022-07-29T07:34:14.551Z,42
2022-07-29T07:35:14.574Z,40
2022-07-29T07:36:14.574Z,51
2022-07-29T07:37:14.575Z,49
2022-07-29T07:38:14.575Z,44
2022-07-29T07:39:14.576Z,50
2022-07-29T07:40:14.576Z,53
2022-07-29T07:41:14.577Z,53
2022-07-29T07:42:14.577Z,54
2022-07-29T07:43:14.578Z,51
2022-07-29T07:44:14.619Z,52
2022-07-29T07:45:14.556Z,54
2022-07-29T07:46:14.557Z,58
2022-07-29T07:47:14.557Z,50
2022-07-29T07:48:14.558Z,43
2022-07-29T07:49:14.558Z,51
2022-07-29T07:50:14.559Z,48
2022-07-29T07:51:14.582Z,42
2022-07-29T07:52:14.582Z,50
2022-07-29T07:53:14.591Z,46
2022-07-29T07:54:14.583Z,46
2022-07-29T07:55:14.584Z,41
2022-07-29T07:56:14.584Z,53
2022-07-29T07:57:14.585Z,48
2022-07-29T07:58:14.585Z,38
2022-07-29T07:59:14.586Z,48
2022-07-29T08:00:14.564Z,42
2022-07-29T08:01:14.564Z,44
2022-07-29T08:02:14.565Z,42
2022-07-29T08:03:14.565Z,44
2022-07-29T08:04:14.566Z,47
2022-07-29T08:05:14.566Z,42
2022-07-29T08:06:14.589Z,52
2022-07-29T08:07:14.590Z,52
2022-07-29T08:08:14.590Z,50
2022-07-29T08:09:14.591Z,46
2022-07-29T08:10:14.591Z,44
2022-07-29T08:11:14.592Z,42
2022-07-29T08:12:14.593Z,46
2022-07-29T08:13:14.593Z,41
2022-07-29T08:14:14.594Z,48
2022-07-29T08:15:14.571Z,63
2022-07-29T08:16:14.572Z,44
2022-07-29T08:17:14.573Z,49
2022-07-29T08:18:14.573Z,44
2022-07-29T08:19:14.574Z,50
2022-07-29T08:20:14.574Z,40
2022-07-29T08:21:14.597Z,46
2022-07-29T08:22:14.597Z,53
2022-07-29T08:23:14.598Z,56
2022-07-29T08:24:14.599Z,52
2022-07-29T08:25:14.599Z,55
2022-07-29T08:26:14.600Z,50
2022-07-29T08:27:14.600Z,55
2022-07-29T08:28:14.601Z,49
2022-07-29T08:29:20.652Z,51
2022-07-29T08:30:14.579Z,64
2022-07-29T08:31:14.580Z,60
2022-07-29T08:32:14.580Z,55
2022-07-29T08:33:14.581Z,56
2022-07-29T08:34:14.581Z,58
2022-07-29T08:35:14.582Z,64
2022-07-29T08:36:14.605Z,70
2022-07-29T08:37:14.605Z,62
2022-07-29T08:38:14.606Z,53
2022-07-29T08:39:14.607Z,55
2022-07-29T08:40:14.607Z,59
2022-07-29T08:41:14.608Z,61
2022-07-29T08:42:14.608Z,60
2022-07-29T08:43:14.609Z,62
2022-07-29T08:44:14.609Z,60
2022-07-29T08:45:14.588Z,59
2022-07-29T08:46:14.588Z,60
2022-07-29T08:47:14.589Z,64
2022-07-29T08:48:14.589Z,56
2022-07-29T08:49:14.590Z,60
2022-07-29T08:50:14.590Z,64
2022-07-29T08:51:14.613Z,68
2022-07-29T08:52:14.614Z,71
2022-07-29T08:53:14.623Z,81
2022-07-29T08:54:14.615Z,79
2022-07-29T08:55:14.616Z,69
2022-07-29T08:56:14.616Z,69
2022-07-29T08:57:14.617Z,66
2022-07-29T08:58:14.617Z,79
2022-07-29T08:59:14.618Z,79
2022-07-29T09:00:14.596Z,78
2022-07-29T09:01:14.597Z,74
2022-07-29T09:02:14.597Z,65
2022-07-29T09:03:14.598Z,72
2022-07-29T09:04:14.598Z,61
2022-07-29T09:05:14.599Z,57
2022-07-29T09:06:14.622Z,55
2022-07-29T09:07:14.622Z,56
2022-07-29T09:08:14.623Z,71
2022-07-29T09:09:14.624Z,77
2022-07-29T09:10:14.624Z,71
2022-07-29T09:11:14.625Z,82
2022-07-29T09:12:14.625Z,74
2022-07-29T09:13:14.626Z,76
2022-07-29T09:14:14.627Z,74
2022-07-29T09:15:14.605Z,81
2022-07-29T09:16:14.605Z,78
2022-07-29T09:17:14.606Z,76
2022-07-29T09:18:14.606Z,69
2022-07-29T09:19:14.607Z,72
2022-07-29T09:20:14.608Z,75
2022-07-29T09:21:14.630Z,73
2022-07-29T09:22:14.631Z,70
2022-07-29T09:23:14.631Z,66
2022-07-29T09:24:14.632Z,71
2022-07-29T09:25:14.633Z,79
2022-07-29T09:26:14.634Z,74
2022-07-29T09:27:14.634Z,64
2022-07-29T09:28:14.634Z,70
2022-07-29T09:29:14.635Z,67
2022-07-29T09:30:14.660Z,72
2022-07-29T09:31:14.614Z,57
2022-07-29T09:32:14.614Z,58
2022-07-29T09:33:14.615Z,63
2022-07-29T09:34:14.615Z,63
2022-07-29T09:35:14.616Z,62
2022-07-29T09:36:14.639Z,66
2022-07-29T09:37:14.639Z,61
2022-07-29T09:38:14.640Z,57
2022-07-29T09:39:14.649Z,66
2022-07-29T09:40:14.641Z,49
2022-07-29T09:41:14.642Z,53
2022-07-29T09:42:14.642Z,45
2022-07-29T09:43:14.643Z,47
2022-07-29T09:44:14.643Z,55
2022-07-29T09:45:14.644Z,58
2022-07-29T09:46:14.622Z,65
2022-07-29T09:47:14.623Z,59
2022-07-29T09:48:14.623Z,58
2022-07-29T09:49:14.624Z,64
2022-07-29T09:50:14.624Z,55
2022-07-29T09:51:14.625Z,57
2022-07-29T09:52:14.648Z,57
2022-07-29T09:53:14.648Z,61
2022-07-29T09:54:14.657Z,65
2022-07-29T09:55:14.649Z,72
2022-07-29T09:56:14.650Z,72
2022-07-29T09:57:14.651Z,71
2022-07-29T09:58:14.652Z,69
2022-07-29T09:59:14.652Z,74
2022-07-29T10:00:14.653Z,80
2022-07-29T10:01:14.631Z,85
2022-07-29T10:02:14.631Z,87
2022-07-29T10:03:14.632Z,83
2022-07-29T10:04:14.632Z,86
2022-07-29T10:05:14.633Z,76
2022-07-29T10:06:14.633Z,81
2022-07-29T10:07:14.656Z,69
2022-07-29T10:08:14.657Z,63
2022-07-29T10:09:14.658Z,66
2022-07-29T10:10:14.658Z,70
2022-07-29T10:11:14.659Z,72
2022-07-29T10:12:14.659Z,59
2022-07-29T10:13:14.660Z,73
2022-07-29T10:14:14.661Z,70
2022-07-29T10:15:14.661Z,77
2022-07-29T10:16:14.639Z,72
2022-07-29T10:17:14.640Z,79
2022-07-29T10:18:14.640Z,81
2022-07-29T10:19:14.641Z,73
2022-07-29T10:20:14.642Z,72
2022-07-29T10:21:14.642Z,75
2022-07-29T10:22:14.665Z,73
2022-07-29T10:23:14.666Z,64
2022-07-29T10:24:14.666Z,64
2022-07-29T10:25:14.667Z,67
2022-07-29T10:26:14.667Z,57
2022-07-29T10:27:14.668Z,52
2022-07-29T10:28:14.669Z,57
2022-07-29T10:29:14.669Z,62
2022-07-29T10:30:14.670Z,58
2022-07-29T10:31:14.696Z,57
2022-07-29T10:32:14.649Z,56
2022-07-29T10:33:14.649Z,60
2022-07-29T10:34:14.650Z,67
2022-07-29T10:35:14.650Z,53
2022-07-29T10:36:14.651Z,52
2022-07-29T10:37:14.674Z,47
2022-07-29T10:38:14.674Z,51
2022-07-29T10:39:14.675Z,56
2022-07-29T10:40:14.715Z,66
2022-07-29T10:41:14.676Z,62
2022-07-29T10:42:14.677Z,63
2022-07-29T10:43:14.677Z,59
2022-07-29T10:44:14.678Z,59
2022-07-29T10:45:14.679Z,77
2022-07-29T10:46:14.679Z,80
2022-07-29T10:47:14.657Z,73
2022-07-29T10:48:14.658Z,80
2022-07-29T10:49:14.658Z,76
2022-07-29T10:50:14.659Z,76
2022-07-29T10:51:14.660Z,67
2022-07-29T10:52:14.660Z,59
2022-07-29T10:53:14.683Z,70
2022-07-29T10:54:14.684Z,64
2022-07-29T10:55:14.684Z,71
2022-07-29T10:56:14.685Z,69
2022-07-29T10:57:14.686Z,74
2022-07-29T10:58:14.686Z,79
2022-07-29T10:59:14.687Z,79
2022-07-29T11:00:14.687Z,84
2022-07-29T11:01:14.688Z,76
2022-07-29T11:02:14.666Z,68
2022-07-29T11:03:14.667Z,75
2022-07-29T11:04:14.667Z,72
2022-07-29T11:05:14.668Z,64
2022-07-29T11:06:14.668Z,60
2022-07-29T11:07:14.669Z,70
2022-07-29T11:08:14.692Z,73
2022-07-29T11:09:14.693Z,68
2022-07-29T11:10:14.693Z,67
2022-07-29T11:11:14.694Z,67
2022-07-29T11:12:14.694Z,74
2022-07-29T11:13:14.695Z,68
2022-07-29T11:14:14.696Z,68
2022-07-29T11:15:14.696Z,72
2022-07-29T11:16:14.697Z,66
2022-07-29T11:17:14.675Z,67
2022-07-29T11:18:14.676Z,72
2022-07-29T11:19:14.676Z,77
2022-07-29T11:20:14.677Z,76
2022-07-29T11:21:14.677Z,67
2022-07-29T11:22:14.678Z,72
2022-07-29T11:23:14.701Z,68
2022-07-29T11:24:14.701Z,71
2022-07-29T11:25:14.702Z,72
2022-07-29T11:26:14.703Z,68
2022-07-29T11:27:14.703Z,67
2022-07-29T11:28:14.704Z,57
2022-07-29T11:29:14.729Z,57
2022-07-29T11:30:14.705Z,56
2022-07-29T11:31:14.706Z,61
2022-07-29T11:32:14.707Z,52
2022-07-29T11:33:14.685Z,53
2022-07-29T11:34:14.685Z,61
2022-07-29T11:35:14.686Z,71
2022-07-29T11:36:14.686Z,61
2022-07-29T11:37:14.687Z,60
2022-07-29T11:38:14.687Z,50
2022-07-29T11:39:14.710Z,58
2022-07-29T11:40:14.711Z,51
2022-07-29T11:41:14.712Z,48
2022-07-29T11:42:14.712Z,48
2022-07-29T11:43:14.713Z,39
2022-07-29T11:44:14.713Z,49
2022-07-29T11:45:14.714Z,51
2022-07-29T11:46:14.715Z,57
2022-07-29T11:47:14.715Z,54
2022-07-29T11:48:14.693Z,62
2022-07-29T11:49:14.694Z,66
2022-07-29T11:50:14.695Z,64
2022-07-29T11:51:14.695Z,61
2022-07-29T11:52:14.696Z,61
2022-07-29T11:53:14.696Z,68
2022-07-29T11:54:14.720Z,66
2022-07-29T11:55:14.720Z,66
2022-07-29T11:56:14.721Z,66
2022-07-29T11:57:14.721Z,80
2022-07-29T11:58:14.722Z,67
2022-07-29T11:59:14.722Z,66
2022-07-29T12:00:14.723Z,58
2022-07-29T12:01:14.724Z,55
2022-07-29T12:02:14.725Z,51
2022-07-29T12:03:14.702Z,55
2022-07-29T12:04:14.703Z,66
2022-07-29T12:05:14.704Z,69
2022-07-29T12:06:14.704Z,64
2022-07-29T12:07:14.705Z,51
2022-07-29T12:08:14.705Z,55
2022-07-29T12:09:14.728Z,68
2022-07-29T12:10:14.729Z,72
2022-07-29T12:11:14.730Z,76
2022-07-29T12:12:14.730Z,72
2022-07-29T12:13:14.731Z,59
2022-07-29T12:14:14.731Z,61
2022-07-29T12:15:14.732Z,71
2022-07-29T12:16:14.733Z,65
2022-07-29T12:17:14.733Z,57
2022-07-29T12:18:14.711Z,60
2022-07-29T12:19:14.712Z,67
2022-07-29T12:20:14.712Z,59
2022-07-29T12:21:14.713Z,74
2022-07-29T12:22:14.713Z,66
2022-07-29T12:23:14.714Z,57
2022-07-29T12:24:14.737Z,53
2022-07-29T12:25:14.738Z,74
2022-07-29T12:26:14.738Z,66
2022-07-29T12:27:14.739Z,62
2022-07-29T12:28:14.739Z,64
2022-07-29T12:29:14.740Z,62
2022-07-29T12:30:14.741Z,73
2022-07-29T12:31:14.741Z,64
2022-07-29T12:32:14.742Z,64
2022-07-29T12:33:14.808Z,48
2022-07-29T12:34:14.720Z,53
2022-07-29T12:35:14.721Z,46
2022-07-29T12:36:14.744Z,58
2022-07-29T12:37:14.722Z,63
2022-07-29T12:38:14.723Z,56
2022-07-29T12:39:14.747Z,51
2022-07-29T12:40:14.746Z,66
2022-07-29T12:41:14.746Z,46
2022-07-29T12:42:14.747Z,58
2022-07-29T12:43:14.748Z,57
2022-07-29T12:44:14.748Z,63
2022-07-29T12:45:14.749Z,74
2022-07-29T12:46:14.750Z,73
2022-07-29T12:47:14.750Z,78
2022-07-29T12:48:14.751Z,73
2022-07-29T12:49:14.729Z,72
2022-07-29T12:50:14.729Z,80
2022-07-29T12:51:14.730Z,81
2022-07-29T12:52:14.730Z,73
2022-07-29T12:53:14.731Z,78
2022-07-29T12:54:14.731Z,76
2022-07-29T12:55:14.754Z,80
2022-07-29T12:56:14.755Z,73
2022-07-29T12:57:14.764Z,63
2022-07-29T12:58:14.756Z,64
2022-07-29T12:59:14.757Z,70
2022-07-29T13:00:14.757Z,74
2022-07-29T13:01:14.758Z,67
2022-07-29T13:02:14.758Z,62
2022-07-29T13:03:14.759Z,64
2022-07-29T13:04:14.737Z,56
2022-07-29T13:05:14.738Z,59
2022-07-29T13:06:14.738Z,62
2022-07-29T13:07:14.739Z,53
2022-07-29T13:08:14.739Z,49
2022-07-29T13:09:14.740Z,56
2022-07-29T13:10:14.763Z,58
2022-07-29T13:11:14.763Z,56
2022-07-29T13:12:14.764Z,62
2022-07-29T13:13:14.764Z,50
2022-07-29T13:14:14.765Z,57
2022-07-29T13:15:14.766Z,59
2022-07-29T13:16:14.766Z,57
2022-07-29T13:17:14.767Z,48
2022-07-29T13:18:14.767Z,45
2022-07-29T13:19:14.745Z,39
2022-07-29T13:20:14.746Z,44
2022-07-29T13:21:14.746Z,32
2022-07-29T13:22:14.747Z,35
2022-07-29T13:23:14.747Z,31
2022-07-29T13:24:14.748Z,31
2022-07-29T13:25:14.771Z,35
2022-07-29T13:26:14.771Z,41
2022-07-29T13:27:14.772Z,45
2022-07-29T13:29:14.773Z,54
2022-07-29T13:30:14.774Z,64
2022-07-29T13:31:14.774Z,55
2022-07-29T13:32:14.775Z,51
2022-07-29T13:33:14.776Z,51
2022-07-29T13:34:14.801Z,48
2022-07-29T13:35:14.754Z,49
2022-07-29T13:36:14.755Z,45
2022-07-29T13:37:14.755Z,50
2022-07-29T13:38:14.756Z,59
2022-07-29T13:39:14.756Z,56
2022-07-29T13:40:14.779Z,52
2022-07-29T13:41:14.780Z,46
2022-07-29T13:42:14.780Z,55
2022-07-29T13:43:14.821Z,57
2022-07-29T13:44:14.781Z,47
2022-07-29T13:45:14.782Z,51
2022-07-29T13:46:14.783Z,55
2022-07-29T13:47:14.783Z,44
2022-07-29T13:48:14.784Z,44
2022-07-29T13:49:14.784Z,47
2022-07-29T13:50:14.762Z,44
2022-07-29T13:51:14.763Z,48
2022-07-29T13:52:14.764Z,51
2022-07-29T13:53:14.764Z,53
2022-07-29T13:54:14.765Z,53
2022-07-29T13:55:14.765Z,56
2022-07-29T13:56:14.788Z,51
2022-07-29T13:57:14.789Z,50
2022-07-29T13:58:14.797Z,56
2022-07-29T13:59:14.790Z,52
2022-07-29T14:00:14.790Z,59
2022-07-29T14:01:14.791Z,61
2022-07-29T14:02:14.792Z,56
2022-07-29T14:03:14.792Z,54
2022-07-29T14:04:14.793Z,59
2022-07-29T14:05:14.771Z,62
2022-07-29T14:06:14.771Z,53
2022-07-29T14:07:14.772Z,54
2022-07-29T14:08:14.772Z,46
2022-07-29T14:09:14.773Z,43
2022-07-29T14:10:14.773Z,46
2022-07-29T14:11:14.796Z,44
2022-07-29T14:12:14.797Z,49
2022-07-29T14:13:14.798Z,56
2022-07-29T14:14:14.798Z,58
2022-07-29T14:15:14.799Z,59
2022-07-29T14:16:14.799Z,70
2022-07-29T14:17:14.800Z,66
2022-07-29T14:18:14.801Z,67